createdAt,value
2019-05-20T00:02:25.790Z,29.30
2019-05-20T00:04:51.375Z,31.70
2019-05-20T00:07:20.065Z,31.73
2019-05-20T00:09:48.707Z,26.90
2019-05-20T00:12:17.352Z,25.50
2019-05-20T00:14:45.952Z,26.90
2019-05-20T00:17:14.911Z,27.10
2019-05-20T00:19:43.628Z,25.70
2019-05-20T00:22:12.222Z,26.80
2019-05-20T00:24:40.891Z,30.00
2019-05-20T00:27:09.624Z,30.33
2019-05-20T00:29:38.212Z,22.90
2019-05-20T00:32:06.916Z,31.57
2019-05-20T00:34:36.557Z,34.60
2019-05-20T00:37:05.287Z,30.10
2019-05-20T00:39:35.241Z,29.17
2019-05-20T00:42:03.878Z,31.17
2019-05-20T00:44:33.104Z,33.37
2019-05-20T00:47:02.047Z,29.17
2019-05-20T00:49:31.209Z,26.67
2019-05-20T00:52:01.939Z,28.93
2019-05-20T00:54:30.641Z,44.30
2019-05-20T00:56:59.273Z,27.90
2019-05-20T00:59:27.917Z,29.30
2019-05-20T01:01:57.191Z,30.60
2019-05-20T01:04:26.404Z,34.53
2019-05-20T01:06:55.095Z,31.77
2019-05-20T01:09:23.759Z,24.97
2019-05-20T01:11:52.289Z,30.33
2019-05-20T01:14:21.285Z,28.37
2019-05-20T01:16:49.945Z,29.63
2019-05-20T01:19:18.589Z,23.00
2019-05-20T01:21:47.246Z,26.60
2019-05-20T01:24:15.774Z,25.17
2019-05-20T01:26:44.420Z,24.30
2019-05-20T01:29:13.078Z,27.30
2019-05-20T01:31:42.106Z,25.40
2019-05-20T01:34:11.296Z,29.37
2019-05-20T01:36:39.919Z,26.50
2019-05-20T01:39:11.939Z,20.20
2019-05-20T01:41:40.646Z,28.47
2019-05-20T01:44:09.576Z,27.93
2019-05-20T01:46:38.814Z,27.97
2019-05-20T01:49:07.522Z,27.90
2019-05-20T01:51:37.385Z,29.53
2019-05-20T01:54:06.621Z,25.33
2019-05-20T01:56:35.236Z,32.47
2019-05-20T01:59:03.846Z,29.93
2019-05-20T02:01:32.508Z,31.23
2019-05-20T02:04:01.217Z,35.57
2019-05-20T02:06:30.126Z,32.10
2019-05-20T02:08:58.765Z,34.30
2019-05-20T02:11:27.382Z,34.20
2019-05-20T02:13:57.665Z,31.77
2019-05-20T02:16:28.640Z,31.20
2019-05-20T02:18:57.557Z,29.97
2019-05-20T02:21:26.155Z,30.50
2019-05-20T02:23:55.223Z,32.57
2019-05-20T02:26:23.888Z,29.37
2019-05-20T02:28:52.519Z,26.63
2019-05-20T02:31:21.657Z,31.40
2019-05-20T02:33:52.716Z,35.00
2019-05-20T02:36:21.442Z,30.83
2019-05-20T02:38:52.008Z,29.97
2019-05-20T02:41:21.426Z,33.30
2019-05-20T02:43:51.528Z,32.83
2019-05-20T02:46:20.777Z,29.87
2019-05-20T02:48:49.827Z,34.53
2019-05-20T02:51:20.594Z,28.23
2019-05-20T02:53:49.223Z,29.60
2019-05-20T02:56:18.130Z,28.30
2019-05-20T02:58:47.071Z,31.17
2019-05-20T03:01:17.513Z,31.10
2019-05-20T03:03:46.198Z,33.67
2019-05-20T03:06:14.878Z,40.13
2019-05-20T03:08:43.534Z,35.63
2019-05-20T03:11:12.164Z,41.30
2019-05-20T03:13:40.785Z,40.47
2019-05-20T03:16:09.383Z,32.23
2019-05-20T03:18:38.005Z,28.50
2019-05-20T03:21:07.183Z,38.27
2019-05-20T03:23:36.068Z,38.67
2019-05-20T03:26:04.955Z,38.40
2019-05-20T03:28:33.838Z,39.27
2019-05-20T03:31:02.554Z,33.97
2019-05-20T03:33:31.327Z,38.80
2019-05-20T03:36:01.475Z,43.17
2019-05-20T03:38:30.663Z,36.00
2019-05-20T03:40:59.367Z,36.60
2019-05-20T03:43:28.174Z,28.30
2019-05-20T03:45:56.829Z,26.30
2019-05-20T03:48:25.800Z,31.87
2019-05-20T03:50:54.479Z,26.40
2019-05-20T03:53:23.521Z,29.17
2019-05-20T03:55:52.507Z,32.80
2019-05-20T03:58:21.148Z,32.40
2019-05-20T04:00:50.010Z,38.07
2019-05-20T04:03:19.473Z,30.27
2019-05-20T04:05:50.364Z,31.80
2019-05-20T04:08:18.993Z,32.60
2019-05-20T04:10:48.109Z,34.80
2019-05-20T04:13:16.831Z,44.37
2019-05-20T04:15:45.555Z,45.63
2019-05-20T04:18:14.198Z,48.53
2019-05-20T04:20:42.760Z,43.73
2019-05-20T04:23:11.427Z,43.43
2019-05-20T04:25:40.335Z,41.80
2019-05-20T04:28:09.190Z,44.03
2019-05-20T04:30:37.882Z,44.57
2019-05-20T04:33:07.380Z,39.70
2019-05-20T04:35:36.166Z,40.03
2019-05-20T04:38:04.861Z,44.17
2019-05-20T04:40:33.511Z,40.80
2019-05-20T04:43:02.203Z,33.77
2019-05-20T04:45:31.305Z,37.50
2019-05-20T04:47:59.881Z,35.57
2019-05-20T04:50:29.033Z,36.23
2019-05-20T04:52:57.742Z,34.73
2019-05-20T04:55:26.326Z,33.27
2019-05-20T04:57:54.977Z,29.00
2019-05-20T05:00:51.731Z,37.13
2019-05-20T05:03:21.659Z,32.03
2019-05-20T05:05:51.104Z,39.10
2019-05-20T05:08:20.757Z,39.07
2019-05-20T05:10:49.739Z,43.80
2019-05-20T05:13:20.438Z,31.03
2019-05-20T05:15:48.866Z,34.37
2019-05-20T05:18:17.783Z,40.87
2019-05-20T05:20:47.578Z,48.73
2019-05-20T05:23:19.496Z,37.97
2019-05-20T05:25:48.253Z,38.83
2019-05-20T05:28:17.013Z,36.63
2019-05-20T05:30:47.411Z,42.23
2019-05-20T05:33:16.095Z,33.10
2019-05-20T05:35:52.753Z,36.37
2019-05-20T05:38:15.196Z,37.57
2019-05-20T05:40:44.298Z,33.37
2019-05-20T05:43:12.977Z,40.43
2019-05-20T05:45:41.611Z,35.80
2019-05-20T05:48:10.261Z,38.33
2019-05-20T05:50:38.969Z,31.13
2019-05-20T05:53:07.619Z,39.27
2019-05-20T05:55:38.088Z,32.57
2019-05-20T05:58:08.770Z,36.53
2019-05-20T06:00:38.092Z,37.70
2019-05-20T06:03:06.843Z,36.57
2019-05-20T06:05:35.654Z,40.57
2019-05-20T06:08:05.592Z,46.73
2019-05-20T06:10:35.861Z,77.70
2019-05-20T06:13:05.060Z,42.67
2019-05-20T06:15:33.879Z,40.27
2019-05-20T06:18:02.631Z,44.20
2019-05-20T06:23:01.836Z,41.70
2019-05-20T06:27:59.118Z,59.57
2019-05-20T06:30:40.705Z,46.17
2019-05-20T06:33:09.606Z,49.30
2019-05-20T06:35:38.433Z,32.60
2019-05-20T06:43:05.172Z,27.73
2019-05-20T06:45:34.076Z,24.77
2019-05-20T06:50:31.230Z,21.65
2019-05-20T06:52:59.860Z,23.20
2019-05-20T06:55:28.410Z,35.10
2019-05-20T07:05:34.213Z,31.10
2019-05-20T07:08:03.474Z,27.33
2019-05-20T07:30:17.821Z,25.10
2019-05-20T07:45:10.568Z,25.30
2019-05-20T09:43:55.702Z,24.20
2019-05-20T10:03:45.644Z,27.70
2019-05-20T10:47:10.380Z,48.90
2019-05-20T19:59:03.206Z,7.43
2019-05-20T20:01:32.008Z,7.13
2019-05-20T20:04:02.400Z,9.73
2019-05-20T20:06:36.343Z,7.00
2019-05-20T20:09:10.862Z,11.63
2019-05-20T20:11:44.365Z,8.00
2019-05-20T20:14:17.686Z,9.65
2019-05-20T20:16:44.422Z,9.20
2019-05-20T20:19:13.880Z,11.40
2019-05-20T20:38:58.246Z,9.80
2019-05-20T20:53:46.083Z,11.50
2019-05-20T21:06:08.798Z,18.20
2019-05-20T21:08:37.324Z,22.53
2019-05-20T21:11:05.938Z,20.13
2019-05-20T21:13:34.818Z,31.93
2019-05-20T21:16:03.279Z,27.10
2019-05-20T21:18:31.909Z,24.70
2019-05-20T21:21:00.422Z,26.97
2019-05-20T21:23:29.087Z,23.20
2019-05-20T21:25:58.117Z,21.90
2019-05-20T21:28:26.803Z,21.53
2019-05-20T21:30:55.374Z,27.30
2019-05-20T21:33:23.901Z,26.27
2019-05-20T21:35:52.454Z,22.93
2019-05-20T21:38:21.145Z,19.17
2019-05-20T21:40:49.861Z,20.47
2019-05-20T21:43:18.870Z,22.47
2019-05-20T21:45:47.539Z,21.00
2019-05-20T21:48:16.110Z,26.87
2019-05-20T21:50:44.686Z,27.83
2019-05-20T21:53:13.176Z,26.97
2019-05-20T21:55:41.668Z,30.87
2019-05-20T21:58:10.867Z,23.50
2019-05-20T22:08:15.431Z,29.00
2019-05-20T22:13:11.890Z,42.80
2019-05-20T22:15:40.375Z,46.90
2019-05-20T22:18:09.023Z,63.03
2019-05-20T22:20:37.583Z,52.83
2019-05-20T22:23:16.650Z,58.23
2019-05-20T22:25:49.934Z,54.60
2019-05-20T22:28:18.538Z,66.60
2019-05-20T22:30:47.275Z,77.03
2019-05-20T22:33:15.959Z,83.40
2019-05-20T22:45:35.902Z,57.20
2019-05-20T22:48:04.445Z,61.50
2019-05-20T22:57:56.542Z,57.40
2019-05-20T23:00:25.147Z,70.50
2019-05-20T23:02:53.757Z,66.83
2019-05-20T23:05:22.805Z,71.43
2019-05-20T23:07:51.314Z,61.20
2019-05-20T23:10:19.888Z,57.60
2019-05-20T23:12:48.612Z,51.17
2019-05-20T23:15:17.434Z,57.40
2019-05-20T23:17:46.097Z,58.50
2019-05-20T23:20:15.189Z,57.70
2019-05-20T23:22:43.816Z,55.77
2019-05-20T23:25:12.937Z,47.60
2019-05-20T23:27:41.730Z,52.80
2019-05-20T23:30:10.495Z,41.50
2019-05-20T23:32:38.973Z,46.90
2019-05-20T23:35:08.004Z,68.17
2019-05-20T23:37:37.011Z,43.57
2019-05-20T23:40:06.770Z,39.23
2019-05-20T23:42:35.534Z,50.97
2019-05-20T23:45:07.236Z,50.07
2019-05-20T23:47:37.306Z,57.07
2019-05-20T23:50:06.252Z,71.67
2019-05-20T23:52:35.142Z,63.23
2019-05-20T23:55:05.211Z,66.20
2019-05-20T23:57:33.842Z,47.50
